Time;durP1;ratioP1;P1;durP2;ratioP2;P2;SDS_P1;SDS_P2;PMS_P1;PMS_P2;Temp;Humidity;BMP_temperature;BMP_pressure;BME280_temperature;BME280_humidity;BME280_pressure;Samples;Min_cycle;Max_cycle;Signal;HPM_P1;HPM_P2
2022/06/21 00:01:00;;;;;;;0.40;0.40;;;19.50;70.90;;;19.55;55.91;94733.44;5057119;28;20559;-80
2022/06/21 00:03:28;;;;;;;0.50;0.50;;;19.30;70.00;;;19.50;56.04;94737.66;5069926;28;20206;-80
2022/06/21 00:05:56;;;;;;;0.50;0.50;;;19.40;70.00;;;19.45;55.57;94740.25;5073200;28;20296;-80
2022/06/21 00:08:28;;;;;;;0.45;0.45;;;19.30;69.80;;;19.39;55.50;94749.25;5055552;28;20687;-80
2022/06/21 00:10:57;;;;;;;0.40;0.40;;;19.30;69.80;;;19.29;55.27;94741.97;5053695;28;20241;-79
2022/06/21 00:13:28;;;;;;;0.45;0.45;;;19.30;69.60;;;19.24;55.77;94757.06;5056006;28;20198;-79
2022/06/21 00:16:05;;;;;;;0.50;0.50;;;19.20;69.60;;;19.16;55.05;94755.66;5072716;28;20309;-79
2022/06/21 00:18:37;;;;;;;0.40;0.40;;;19.10;69.40;;;19.07;55.08;94757.19;5055894;28;20240;-80
2022/06/21 00:21:20;;;;;;;0.40;0.40;;;19.00;69.40;;;18.99;55.14;94761.88;5068232;28;20223;-79
2022/06/21 00:23:50;;;;;;;0.30;0.30;;;19.00;69.60;;;18.94;55.39;94766.31;5051673;28;20234;-78
2022/06/21 00:26:20;;;;;;;0.40;0.40;;;19.00;69.40;;;18.87;55.14;94766.47;5072638;28;20211;-80
2022/06/21 00:28:47;;;;;;;0.45;0.45;;;18.80;69.20;;;18.82;54.99;94764.56;5072452;28;20183;-80
2022/06/21 00:31:20;;;;;;;0.50;0.50;;;18.80;69.30;;;18.76;55.29;94765.56;5070965;28;20235;-79
2022/06/21 00:33:48;;;;;;;0.50;0.50;;;18.70;69.00;;;18.72;54.75;94775.06;5049975;28;20661;-79
2022/06/21 00:36:29;;;;;;;0.40;0.40;;;18.70;69.10;;;18.66;54.85;94766.25;5052100;28;20246;-80
2022/06/21 00:38:58;;;;;;;0.50;0.50;;;18.60;69.10;;;18.60;55.26;94772.50;5052121;28;20195;-80
2022/06/21 00:41:48;;;;;;;0.40;0.40;;;18.60;69.20;;;18.51;54.94;94763.38;5054363;28;20222;-79
2022/06/21 00:44:33;;;;;;;0.50;0.50;;;18.50;69.00;;;18.45;54.72;94770.44;5067701;28;20257;-79
2022/06/21 00:47:05;;;;;;;0.50;0.50;;;18.40;69.00;;;18.38;55.13;94767.16;5035589;28;20206;-80
2022/06/21 00:49:50;;;;;;;0.50;0.50;;;18.30;69.00;;;18.28;55.07;94764.38;5068536;28;20223;-80
2022/06/21 00:52:26;;;;;;;0.50;0.50;;;18.20;69.00;;;18.23;54.71;94762.44;5055794;28;20215;-80
2022/06/21 00:55:05;;;;;;;0.47;0.47;;;18.20;69.00;;;18.16;54.89;94773.25;5071511;28;20222;-79
2022/06/21 00:57:47;;;;;;;0.52;0.52;;;18.10;69.00;;;18.13;54.82;94773.72;5072091;28;20202;-80
2022/06/21 01:00:39;;;;;;;0.50;0.50;;;18.10;68.80;;;18.08;54.99;94776.31;5067634;28;20273;-79
2022/06/21 01:03:19;;;;;;;0.57;0.57;;;18.00;68.70;;;18.00;54.86;94780.16;5054832;28;20198;-79
2022/06/21 01:05:47;;;;;;;0.50;0.50;;;18.00;68.50;;;17.93;54.13;94779.47;5054992;28;20233;-79
2022/06/21 01:08:21;;;;;;;0.40;0.40;;;17.90;68.40;;;17.84;53.84;94775.63;5055174;28;20590;-79
2022/06/21 01:10:56;;;;;;;0.50;0.50;;;17.80;67.80;;;17.75;53.81;94778.66;5066723;28;20214;-80
2022/06/21 01:13:28;;;;;;;0.50;0.50;;;17.80;68.00;;;17.68;54.10;94778.03;5071610;28;20217;-80
2022/06/21 01:15:56;;;;;;;0.40;0.40;;;17.70;67.80;;;17.59;53.72;94776.81;5088315;28;20297;-79
2022/06/21 01:18:26;;;;;;;0.50;0.50;;;17.60;67.70;;;17.46;53.78;94780.56;5070086;28;20202;-79
2022/06/21 01:20:57;;;;;;;0.55;0.55;;;17.50;67.60;;;17.32;53.61;94782.72;5063331;28;20806;-79
2022/06/21 01:23:31;;;;;;;0.50;0.50;;;17.30;67.50;;;17.17;53.63;94787.72;5052180;28;20674;-80
2022/06/21 01:26:31;;;;;;;0.50;0.50;;;17.20;67.60;;;16.96;53.91;94784.69;5054184;28;20695;-80
2022/06/21 01:29:02;;;;;;;0.50;0.50;;;17.00;68.50;;;16.85;53.66;94791.56;5056283;28;20202;-79
2022/06/21 01:31:30;;;;;;;0.40;0.40;;;16.90;67.70;;;16.74;53.87;94790.56;5060416;28;20692;-80
2022/06/21 01:33:57;;;;;;;0.50;0.50;;;16.70;67.90;;;16.63;53.79;94789.53;5062089;28;20195;-79
2022/06/21 01:36:36;;;;;;;0.50;0.50;;;16.60;68.10;;;16.53;54.42;94796.47;5043882;28;20212;-79
2022/06/21 01:39:11;;;;;;;0.60;0.60;;;16.50;68.50;;;16.43;54.51;94792.56;5052461;28;20264;-79
2022/06/21 01:41:51;;;;;;;0.50;0.50;;;16.30;68.60;;;16.33;54.41;94790.50;5067764;28;20198;-80
2022/06/21 01:44:31;;;;;;;0.50;0.50;;;16.30;68.50;;;16.25;54.49;94790.06;5017845;28;20648;-79
2022/06/21 01:47:01;;;;;;;0.50;0.50;;;16.20;68.60;;;16.16;54.40;94790.38;5047305;28;20203;-80
2022/06/21 01:49:35;;;;;;;0.50;0.50;;;16.10;68.60;;;16.08;54.63;94779.34;5051117;28;20273;-79
2022/06/21 01:52:13;;;;;;;0.40;0.40;;;16.00;68.80;;;15.98;54.79;94788.63;5034502;28;20269;-80
2022/06/21 01:54:45;;;;;;;0.60;0.60;;;15.90;69.00;;;15.87;54.97;94786.78;5050145;28;20219;-79
2022/06/21 01:57:13;;;;;;;0.57;0.57;;;15.90;69.00;;;15.80;55.16;94786.84;5050223;28;20202;-80
2022/06/21 01:59:46;;;;;;;0.70;0.70;;;15.70;68.90;;;15.72;55.31;94783.75;5034688;28;20212;-79
2022/06/21 02:02:23;;;;;;;0.63;0.63;;;15.70;69.30;;;15.61;55.34;94791.44;5050655;28;20222;-80
2022/06/21 02:05:16;;;;;;;0.55;0.55;;;15.50;69.60;;;15.48;56.61;94794.28;5034334;28;20227;-79
2022/06/21 02:07:50;;;;;;;0.70;0.70;;;15.40;70.00;;;15.40;56.45;94792.72;5045437;28;20676;-80
2022/06/21 02:10:28;;;;;;;0.60;0.60;;;15.40;69.80;;;15.34;55.86;94799.75;5034365;28;20230;-79
2022/06/21 02:13:02;;;;;;;0.60;0.60;;;15.20;70.00;;;15.28;56.18;94794.53;5066066;28;20206;-78
2022/06/21 02:15:50;;;;;;;0.60;0.60;;;15.20;70.90;;;15.18;56.20;94797.72;5042881;28;20226;-80
2022/06/21 02:18:19;;;;;;;0.70;0.70;;;15.10;69.80;;;15.10;56.49;94792.72;5050939;28;20598;-79
2022/06/21 02:21:15;;;;;;;0.50;0.50;;;15.00;70.00;;;15.00;56.49;94785.31;5053020;28;20207;-81
2022/06/21 02:23:43;;;;;;;0.55;0.55;;;14.90;70.20;;;15.00;56.33;94793.25;5050152;28;20205;-79
2022/06/21 02:26:12;;;;;;;0.60;0.60;;;14.80;70.10;;;14.96;56.42;94795.53;5067249;28;20225;-80
2022/06/21 02:28:41;;;;;;;0.60;0.60;;;14.80;70.40;;;14.91;56.87;94798.03;5071025;28;20281;-78
2022/06/21 02:31:09;;;;;;;0.60;0.60;;;14.80;70.60;;;14.87;57.16;94802.16;5053414;28;20223;-80
2022/06/21 02:33:37;;;;;;;0.47;0.47;;;14.70;70.70;;;14.81;57.06;94803.03;5039001;28;20194;-79
2022/06/21 02:36:20;;;;;;;0.50;0.50;;;14.70;70.90;;;14.77;57.56;94804.50;5051278;28;20211;-78
2022/06/21 02:38:59;;;;;;;0.70;0.70;;;14.60;71.60;;;14.71;57.53;94809.63;5063522;28;20366;-79
2022/06/21 02:41:33;;;;;;;0.40;0.40;;;14.60;71.50;;;14.66;57.85;94798.94;5065583;28;20325;-79
2022/06/21 02:44:12;;;;;;;0.60;0.60;;;14.60;71.60;;;14.62;58.10;94799.56;5054428;28;20191;-79
2022/06/21 02:46:46;;;;;;;0.60;0.60;;;14.50;71.70;;;14.58;58.29;94793.91;5054984;28;20649;-80
2022/06/21 02:49:40;;;;;;;0.60;0.60;;;14.40;71.80;;;14.54;57.90;94798.03;5089189;28;20311;-79
2022/06/21 02:52:18;;;;;;;0.80;0.80;;;14.40;71.70;;;14.51;58.11;94790.53;5037742;28;20204;-80
2022/06/21 02:54:53;;;;;;;0.60;0.60;;;14.40;72.40;;;14.45;58.55;94788.78;5054429;28;20223;-79
2022/06/21 02:57:42;;;;;;;0.70;0.70;;;14.30;72.00;;;14.42;59.25;94797.94;5053756;28;20266;-80
2022/06/21 03:00:18;;;;;;;0.50;0.50;;;14.30;72.50;;;14.39;59.01;94799.19;5037454;28;20223;-80
2022/06/21 03:02:48;;;;;;;0.57;0.57;;;14.30;72.50;;;14.37;58.70;94795.94;5037663;28;20230;-79
2022/06/21 03:05:20;;;;;;;0.60;0.60;;;14.30;72.30;;;14.35;59.46;94794.56;5054421;28;20294;-80
2022/06/21 03:07:53;;;;;;;0.50;0.50;;;14.20;72.50;;;14.32;59.19;94798.44;5053960;28;20239;-79
2022/06/21 03:10:39;;;;;;;0.60;0.60;;;14.20;72.70;;;14.31;58.94;94798.66;5053968;28;20319;-79
2022/06/21 03:13:28;;;;;;;0.57;0.57;;;14.20;73.00;;;14.28;58.99;94799.09;5054000;28;20203;-80
2022/06/21 03:16:11;;;;;;;0.60;0.60;;;14.10;73.10;;;14.24;59.15;94801.34;5054260;28;20215;-79
2022/06/21 03:18:58;;;;;;;0.40;0.40;;;14.10;73.00;;;14.23;58.87;94799.72;5050919;28;20196;-79
2022/06/21 03:21:30;;;;;;;0.60;0.60;;;14.10;73.20;;;14.23;58.93;94808.47;5020774;28;20215;-79
2022/06/21 03:24:00;;;;;;;0.50;0.50;;;14.10;72.90;;;14.22;59.63;94804.22;5037386;28;20624;-79
2022/06/21 03:26:28;;;;;;;0.50;0.50;;;14.00;73.10;;;14.22;59.72;94798.94;5056051;28;20757;-80
2022/06/21 03:28:57;;;;;;;0.50;0.50;;;14.10;73.30;;;14.22;59.25;94796.28;5048577;28;20199;-79
2022/06/21 03:31:33;;;;;;;0.52;0.52;;;14.00;73.20;;;14.20;60.18;94798.34;5036609;28;20223;-79
2022/06/21 03:34:13;;;;;;;0.50;0.50;;;14.00;74.00;;;14.20;60.80;94810.72;5076377;28;20269;-79
2022/06/21 03:36:41;;;;;;;0.70;0.70;;;14.10;75.20;;;14.19;60.67;94811.75;5030273;28;20191;-80
2022/06/21 03:39:20;;;;;;;0.60;0.60;;;14.10;73.90;;;14.20;60.59;94806.25;5072047;28;20223;-80
2022/06/21 03:41:50;;;;;;;0.60;0.60;;;14.10;73.90;;;14.21;60.82;94793.88;5057070;28;20207;-80
2022/06/21 03:44:40;;;;;;;0.60;0.60;;;14.10;74.10;;;14.21;60.49;94807.06;5080684;28;20198;-79
2022/06/21 03:47:24;;;;;;;0.50;0.50;;;14.10;74.30;;;14.21;60.59;94801.78;5080948;28;20184;-80
2022/06/21 03:50:18;;;;;;;0.60;0.60;;;14.10;74.20;;;14.24;60.78;94806.63;5078911;28;20223;-79
2022/06/21 03:53:23;;;;;;;0.50;0.50;;;14.20;74.60;;;14.23;61.63;94820.84;5071278;28;20195;-80
2022/06/21 03:56:22;;;;;;;0.43;0.43;;;14.20;74.50;;;14.24;61.72;94811.91;5051734;28;20249;-80
2022/06/21 03:59:16;;;;;;;0.50;0.50;;;14.20;74.80;;;14.26;62.04;94820.41;5064325;28;20653;-79
2022/06/21 04:01:55;;;;;;;0.40;0.40;;;14.20;75.00;;;14.29;61.93;94814.69;5067800;28;20217;-80
2022/06/21 04:04:32;;;;;;;0.60;0.60;;;14.30;75.00;;;14.33;60.98;94831.72;5070746;28;20187;-80
2022/06/21 04:07:25;;;;;;;0.45;0.45;;;14.30;75.00;;;14.35;61.20;94823.56;5058101;28;20195;-81
2022/06/21 04:10:20;;;;;;;0.60;0.60;;;14.30;75.30;;;14.39;61.04;94819.47;5051956;28;20239;-81
2022/06/21 04:12:56;;;;;;;0.50;0.50;;;14.40;75.00;;;14.41;61.10;94823.53;5033873;28;20278;-81
2022/06/21 04:15:37;;;;;;;0.50;0.50;;;14.40;74.70;;;14.41;61.07;94823.53;5051603;28;20230;-80
2022/06/21 04:18:14;;;;;;;0.60;0.60;;;14.40;74.80;;;14.45;61.06;94829.16;5051794;28;20203;-81
2022/06/21 04:21:12;;;;;;;0.50;0.50;;;14.50;74.70;;;14.45;61.05;94820.44;5036267;28;20264;-81
2022/06/21 04:23:48;;;;;;;0.50;0.50;;;14.50;74.70;;;14.46;60.88;94822.84;5036345;28;20278;-81
2022/06/21 04:26:26;;;;;;;0.70;0.70;;;14.50;74.60;;;14.47;60.95;94823.66;5069176;28;20238;-80
2022/06/21 04:29:22;;;;;;;0.60;0.60;;;14.50;74.70;;;14.51;60.90;94838.03;5072625;28;20277;-80
2022/06/21 04:32:02;;;;;;;0.50;0.50;;;14.50;74.40;;;14.52;61.27;94829.88;5069018;28;20229;-81
2022/06/21 04:34:44;;;;;;;0.50;0.50;;;14.50;74.40;;;14.54;61.02;94821.78;5036626;28;20652;-81
2022/06/21 04:37:22;;;;;;;0.60;0.60;;;14.60;74.60;;;14.56;60.79;94820.53;5054139;28;20290;-81
2022/06/21 04:39:54;;;;;;;0.50;0.50;;;14.60;74.30;;;14.61;60.69;94827.78;5057112;28;20578;-81
2022/06/21 04:42:33;;;;;;;0.40;0.40;;;14.60;74.20;;;14.66;60.55;94820.06;5067029;28;20309;-80
2022/06/21 04:45:29;;;;;;;0.40;0.40;;;14.70;74.50;;;14.69;60.21;94824.88;5052166;28;20313;-80
2022/06/21 04:49:00;;;;;;;0.57;0.57;;;14.70;74.20;;;14.68;60.53;94817.19;5042873;28;20207;-80
2022/06/21 04:51:49;;;;;;;0.50;0.50;;;14.80;73.90;;;14.76;60.29;94824.00;4959208;28;20235;-81
2022/06/21 04:54:32;;;;;;;0.50;0.50;;;14.80;73.80;;;14.79;60.22;94819.09;4977175;28;20212;-80
2022/06/21 04:57:19;;;;;;;0.50;0.50;;;14.80;73.80;;;14.85;60.05;94822.69;5049898;28;20663;-80
2022/06/21 05:00:20;;;;;;;0.40;0.40;;;14.80;73.50;;;14.88;59.86;94819.63;5055415;28;20261;-81
2022/06/21 05:02:57;;;;;;;0.60;0.60;;;14.90;73.60;;;14.93;59.62;94824.22;5071245;28;20233;-80
2022/06/21 05:05:37;;;;;;;0.60;0.60;;;14.90;73.40;;;14.99;59.52;94816.22;5071170;28;20210;-80
2022/06/21 05:08:24;;;;;;;0.60;0.60;;;15.00;73.40;;;15.05;59.79;94815.34;5071099;28;20202;-80
2022/06/21 05:10:56;;;;;;;0.50;0.50;;;15.10;74.10;;;15.14;59.26;94817.69;5071281;28;20226;-80
2022/06/21 05:13:55;;;;;;;0.50;0.50;;;15.10;73.20;;;15.17;59.13;94818.03;5088466;28;20199;-80
2022/06/21 05:16:50;;;;;;;0.50;0.50;;;15.10;73.00;;;15.25;59.05;94818.78;5051215;28;20285;-80
2022/06/21 05:19:27;;;;;;;0.57;0.57;;;15.20;73.00;;;15.33;59.13;94818.44;5070376;28;20237;-80
2022/06/21 05:22:09;;;;;;;0.50;0.50;;;15.30;73.00;;;15.39;58.78;94822.81;5071774;28;20195;-79
2022/06/21 05:24:36;;;;;;;0.50;0.50;;;15.30;73.10;;;15.47;59.14;94824.38;5054653;28;20226;-79
2022/06/21 05:27:19;;;;;;;0.63;0.63;;;15.40;73.00;;;15.54;58.58;94835.66;5058925;28;20201;-80
2022/06/21 05:29:58;;;;;;;0.50;0.50;;;15.40;72.80;;;15.56;57.99;94836.22;5054646;28;20218;-79
2022/06/21 05:32:39;;;;;;;0.50;0.50;;;15.50;72.30;;;15.60;58.40;94829.47;5070533;28;20211;-81
2022/06/21 05:35:18;;;;;;;0.77;0.77;;;15.50;72.30;;;15.63;57.85;94825.56;5066935;28;20211;-81
2022/06/21 05:37:58;;;;;;;0.50;0.50;;;15.60;72.10;;;15.72;58.17;94834.81;5068562;28;20293;-80
2022/06/21 05:40:55;;;;;;;0.50;0.50;;;15.70;72.20;;;15.75;58.00;94852.06;5049841;28;20218;-80
2022/06/21 05:43:39;;;;;;;0.57;0.57;;;15.70;72.20;;;15.79;57.87;94848.72;5050103;28;20248;-80
2022/06/21 05:46:15;;;;;;;0.50;0.50;;;15.80;71.90;;;15.82;58.05;94845.66;5066695;28;20242;-80
2022/06/21 05:48:44;;;;;;;0.50;0.50;;;15.90;72.10;;;15.86;57.58;94853.16;5057459;28;20190;-81
2022/06/21 05:51:18;;;;;;;0.40;0.40;;;15.80;71.80;;;15.94;58.14;94844.88;5080841;28;20217;-80
2022/06/21 05:53:51;;;;;;;0.50;0.50;;;16.00;72.30;;;16.02;58.26;94849.84;5079056;28;20186;-81
2022/06/21 05:56:23;;;;;;;0.50;0.50;;;16.00;72.50;;;16.10;58.12;94854.81;5045195;28;20211;-80
2022/06/21 05:59:05;;;;;;;0.45;0.45;;;16.00;72.10;;;16.19;58.18;94854.47;5053363;28;20198;-80
2022/06/21 06:01:55;;;;;;;0.40;0.40;;;16.10;72.30;;;16.24;57.61;94854.59;5070214;28;20691;-81
2022/06/21 06:04:53;;;;;;;0.47;0.47;;;16.20;71.80;;;16.28;57.60;94848.63;5059632;28;20199;-81
2022/06/21 06:07:37;;;;;;;0.40;0.40;;;16.30;71.70;;;16.36;57.76;94844.03;5077326;28;20698;-80
2022/06/21 06:10:07;;;;;;;0.50;0.50;;;16.30;71.80;;;16.42;57.29;94840.44;5059724;28;20226;-80
2022/06/21 06:12:47;;;;;;;0.50;0.50;;;16.40;71.70;;;16.49;57.32;94841.16;5046154;28;20218;-80
2022/06/21 06:15:22;;;;;;;0.50;0.50;;;16.40;71.50;;;16.57;57.02;94850.56;5064175;28;20229;-80
2022/06/21 06:17:57;;;;;;;0.50;0.50;;;16.50;71.50;;;16.61;56.11;94849.06;5067196;28;20663;-80
2022/06/21 06:21:02;;;;;;;0.40;0.40;;;16.60;70.60;;;16.63;56.05;94849.66;5056946;28;20282;-80
2022/06/21 06:23:41;;;;;;;0.50;0.50;;;16.70;70.90;;;16.70;56.15;94849.50;5056008;28;20202;-80
2022/06/21 06:26:36;;;;;;;0.40;0.40;;;16.70;70.50;;;16.75;56.03;94854.94;5062913;28;20749;-80
2022/06/21 06:29:32;;;;;;;0.57;0.57;;;16.70;70.40;;;16.79;56.00;94848.13;5059282;28;20195;-81
2022/06/21 06:32:37;;;;;;;0.50;0.50;;;16.90;70.40;;;16.88;56.17;94852.06;5036144;28;20234;-80
2022/06/21 06:35:20;;;;;;;0.50;0.50;;;16.90;70.30;;;16.99;56.13;94854.94;5036126;28;20219;-79
2022/06/21 06:37:48;;;;;;;0.50;0.50;;;17.00;70.60;;;17.10;56.52;94857.56;5037783;28;20312;-80
2022/06/21 06:40:32;;;;;;;0.50;0.50;;;17.10;71.00;;;17.21;56.46;94852.47;5054554;28;20225;-80
2022/06/21 06:43:11;;;;;;;0.43;0.43;;;17.10;70.60;;;17.32;55.84;94856.13;5037965;28;20298;-81
2022/06/21 06:45:41;;;;;;;0.50;0.50;;;17.20;70.50;;;17.42;55.59;94841.22;5037997;28;20298;-80
2022/06/21 06:48:20;;;;;;;0.47;0.47;;;17.30;70.30;;;17.53;55.75;94854.69;5054449;28;20201;-80
2022/06/21 06:51:16;;;;;;;0.50;0.50;;;17.50;70.20;;;17.62;55.85;94842.63;5070813;28;20280;-80
2022/06/21 06:53:50;;;;;;;0.50;0.50;;;17.60;71.10;;;17.72;55.21;94847.31;5037306;28;20242;-81
2022/06/21 06:56:26;;;;;;;0.50;0.50;;;17.70;69.90;;;17.82;54.96;94852.81;5035861;28;20211;-80
2022/06/21 06:59:06;;;;;;;0.40;0.40;;;17.70;69.70;;;17.89;55.34;94855.31;5052378;28;20199;-81
2022/06/21 07:01:51;;;;;;;0.50;0.50;;;17.90;69.40;;;17.96;54.37;94858.66;5020823;28;20235;-81
2022/06/21 07:04:19;;;;;;;0.60;0.60;;;17.90;69.10;;;18.02;54.13;94867.50;5035567;28;20203;-80
2022/06/21 07:06:51;;;;;;;0.50;0.50;;;18.00;69.20;;;18.06;53.26;94858.81;5053566;28;20205;-81
2022/06/21 07:09:26;;;;;;;0.50;0.50;;;18.10;68.40;;;18.14;53.28;94864.75;5037363;28;20282;-81
2022/06/21 07:12:16;;;;;;;0.40;0.40;;;18.10;68.40;;;18.19;53.33;94852.38;5037547;28;20237;-80
2022/06/21 07:14:46;;;;;;;0.50;0.50;;;18.20;68.30;;;18.24;52.22;94854.31;5070204;28;20207;-80
2022/06/21 07:17:47;;;;;;;0.50;0.50;;;18.30;67.50;;;18.29;52.73;94846.44;5037291;28;20696;-81
2022/06/21 07:20:36;;;;;;;0.50;0.50;;;18.30;67.30;;;18.30;52.01;94841.94;5054051;28;20211;-80
2022/06/21 07:23:16;;;;;;;0.40;0.40;;;18.40;66.90;;;18.33;51.27;94844.09;5053773;28;20195;-81
2022/06/21 07:26:01;;;;;;;0.40;0.40;;;18.40;66.30;;;18.39;51.67;94845.78;5037075;28;20222;-80
2022/06/21 07:28:45;;;;;;;0.40;0.40;;;18.40;66.90;;;18.39;50.66;94856.41;5053576;28;20294;-81
2022/06/21 07:31:36;;;;;;;0.50;0.50;;;18.40;66.40;;;18.33;48.23;94860.81;5064307;28;20695;-80
2022/06/21 07:34:42;;;;;;;0.40;0.40;;;18.50;65.00;;;18.33;49.74;94860.03;5089728;28;20198;-80
2022/06/21 07:37:28;;;;;;;0.40;0.40;;;18.50;65.20;;;18.39;50.82;94861.72;5059002;28;20446;-80
2022/06/21 07:40:12;;;;;;;0.57;0.57;;;18.50;65.00;;;18.46;51.40;94866.88;5076135;28;20228;-80
2022/06/21 07:42:54;;;;;;;0.40;0.40;;;18.50;67.00;;;18.55;51.69;94863.56;5076232;28;20194;-80
2022/06/21 07:45:37;;;;;;;0.40;0.40;;;18.60;66.30;;;18.65;51.11;94860.25;5077152;28;20292;-80
2022/06/21 07:48:12;;;;;;;0.40;0.40;;;18.70;66.50;;;18.71;50.35;94864.59;5077333;28;20194;-81
2022/06/21 07:50:57;;;;;;;0.40;0.40;;;18.70;66.30;;;18.76;50.83;94857.72;5075601;28;20687;-81
2022/06/21 07:53:45;;;;;;;0.40;0.40;;;18.80;66.20;;;18.81;50.79;94858.63;5074765;28;20190;-81
2022/06/21 07:56:22;;;;;;;0.30;0.30;;;18.80;66.90;;;18.88;50.87;94853.94;5076266;28;20263;-80
2022/06/21 07:59:04;;;;;;;0.40;0.40;;;18.90;66.30;;;18.96;51.15;94858.03;5076798;28;20275;-80
2022/06/21 08:07:35;;;;;;;0.32;0.32;;;19.10;66.40;;;19.29;51.10;94843.03;5066489;28;20195;-80
2022/06/21 08:10:38;;;;;;;0.50;0.50;;;19.20;66.00;;;19.40;51.02;94851.13;5047548;28;20290;-81
2022/06/21 08:13:05;;;;;;;0.40;0.40;;;19.30;66.30;;;19.47;50.59;94852.53;5051729;28;20262;-79
2022/06/21 08:15:41;;;;;;;0.60;0.60;;;19.30;66.10;;;19.58;50.93;94849.97;5050186;28;20219;-81
2022/06/21 08:18:29;;;;;;;0.40;0.40;;;19.50;66.20;;;19.65;50.81;94847.94;5060986;28;20195;-80
2022/06/21 08:21:03;;;;;;;0.35;0.35;;;19.50;65.90;;;19.75;50.84;94852.56;5063055;28;20230;-80
2022/06/21 08:23:43;;;;;;;0.50;0.50;;;19.60;65.90;;;19.82;50.95;94856.63;5060159;28;20209;-79
2022/06/21 08:26:22;;;;;;;0.40;0.40;;;19.70;66.00;;;19.91;50.02;94848.22;5044417;28;20693;-79
2022/06/21 08:29:03;;;;;;;0.40;0.40;;;19.90;65.30;;;19.98;49.48;94856.78;5060773;28;20203;-79
2022/06/21 08:31:35;;;;;;;0.40;0.40;;;19.90;64.90;;;19.95;47.56;94855.44;5060761;28;20257;-79
2022/06/21 08:34:10;;;;;;;0.30;0.30;;;19.90;63.60;;;20.05;46.36;94867.25;5061031;28;20273;-79
2022/06/21 08:36:47;;;;;;;0.30;0.30;;;20.00;63.10;;;20.01;45.74;94864.28;5068651;28;20203;-80
2022/06/21 08:39:38;;;;;;;0.40;0.40;;;20.00;62.50;;;20.04;45.09;94878.94;5045903;28;20217;-79
2022/06/21 08:42:29;;;;;;;0.47;0.47;;;20.10;62.80;;;20.06;46.89;94884.84;5062000;28;20294;-81
2022/06/21 08:45:41;;;;;;;0.40;0.40;;;20.10;63.20;;;20.10;46.95;94880.59;5045853;28;20206;-80
2022/06/21 08:49:10;;;;;;;0.40;0.40;;;20.10;63.10;;;20.19;46.99;94881.75;5062413;28;20559;-80
2022/06/21 08:51:43;;;;;;;0.32;0.32;;;20.20;63.60;;;20.27;46.87;94888.47;5043014;28;20226;-80
2022/06/21 08:54:37;;;;;;;0.40;0.40;;;20.30;63.80;;;20.26;46.05;94876.22;5060708;28;20264;-80
2022/06/21 08:57:22;;;;;;;0.40;0.40;;;20.30;62.80;;;20.30;47.01;94870.13;5062597;28;20219;-80
2022/06/21 09:00:15;;;;;;;0.47;0.47;;;20.40;62.80;;;20.36;45.95;94886.16;5048932;28;20223;-79
2022/06/21 09:02:56;;;;;;;0.50;0.50;;;20.40;61.70;;;20.37;45.57;94877.88;5063539;28;20192;-80
2022/06/21 09:05:58;;;;;;;0.40;0.40;;;20.40;61.90;;;20.36;45.38;94867.50;5029864;28;20712;-80
2022/06/21 09:09:33;;;;;;;0.30;0.30;;;20.50;62.20;;;20.40;46.16;94868.63;5063684;28;20269;-81
2022/06/21 09:12:37;;;;;;;0.50;0.50;;;20.50;62.30;;;20.42;45.66;94872.63;5061783;28;20227;-80
2022/06/21 09:15:32;;;;;;;0.30;0.30;;;20.50;61.90;;;20.47;46.25;94872.66;5052613;28;20716;-80
2022/06/21 09:18:35;;;;;;;0.40;0.40;;;20.60;62.30;;;20.57;45.72;94879.13;5045364;28;20556;-80
2022/06/21 09:21:14;;;;;;;0.40;0.40;;;20.60;62.00;;;20.57;45.12;94871.13;5049765;28;20211;-80
2022/06/21 09:24:06;;;;;;;0.40;0.40;;;20.60;61.90;;;20.60;46.41;94858.09;5061758;28;20199;-80
2022/06/21 09:26:51;;;;;;;0.40;0.40;;;20.70;62.00;;;20.69;46.54;94870.94;5062961;28;20200;-80
2022/06/21 09:29:31;;;;;;;0.40;0.40;;;20.70;62.60;;;20.76;45.51;94868.88;5049799;28;20200;-79
2022/06/21 09:32:37;;;;;;;0.35;0.35;;;20.70;62.40;;;20.86;46.53;94876.13;5043896;28;20218;-80
2022/06/21 09:35:39;;;;;;;0.50;0.50;;;20.80;62.50;;;20.94;46.27;94868.44;5041809;28;20215;-80
2022/06/21 09:38:15;;;;;;;0.40;0.40;;;20.80;62.00;;;21.05;45.59;94863.97;5064473;28;20652;-80
2022/06/21 09:40:47;;;;;;;0.35;0.35;;;20.90;62.20;;;21.15;45.58;94859.75;5058127;28;20212;-79
2022/06/21 09:43:48;;;;;;;0.30;0.30;;;21.00;62.20;;;21.27;46.28;94860.34;5034296;28;20253;-80
2022/06/21 09:46:58;;;;;;;0.40;0.40;;;21.00;62.20;;;21.38;45.84;94869.19;5062047;28;20219;-79
2022/06/21 09:49:47;;;;;;;0.40;0.40;;;21.20;62.50;;;21.45;45.60;94877.75;5066845;28;20731;-80
2022/06/21 09:52:45;;;;;;;0.50;0.50;;;21.30;61.90;;;21.50;45.81;94863.66;5051607;28;20218;-80
2022/06/21 09:55:57;;;;;;;0.40;0.40;;;21.30;62.00;;;21.65;45.71;94866.38;5051945;28;20218;-79
2022/06/21 09:58:45;;;;;;;0.40;0.40;;;21.50;61.60;;;21.72;44.85;94861.59;5067400;28;20557;-80
2022/06/21 10:01:20;;;;;;;0.50;0.50;;;21.60;61.50;;;21.83;45.46;94866.97;5064061;28;20654;-80
2022/06/21 10:04:11;;;;;;;0.40;0.40;;;21.70;61.70;;;21.93;45.26;94872.31;5045002;28;20221;-79
2022/06/21 10:07:02;;;;;;;0.30;0.30;;;21.70;61.80;;;22.04;45.29;94871.25;5057917;28;20211;-79
2022/06/21 10:10:04;;;;;;;0.30;0.30;;;21.80;61.60;;;22.15;45.59;94865.94;5073266;28;20224;-79
2022/06/21 10:13:21;;;;;;;0.40;0.40;;;21.90;62.20;;;22.19;43.14;94880.34;5049295;28;20209;-78
2022/06/21 10:16:17;;;;;;;0.40;0.40;;;22.00;60.70;;;22.21;43.20;94878.22;5031984;28;20220;-79
2022/06/21 10:19:05;;;;;;;0.50;0.50;;;22.10;60.60;;;22.25;43.62;94875.81;5053356;28;20339;-79
2022/06/21 10:21:48;;;;;;;0.45;0.45;;;22.10;60.20;;;22.29;43.92;94871.53;5066175;28;20192;-78
2022/06/21 10:24:40;;;;;;;0.50;0.50;;;22.20;60.50;;;22.34;43.44;94890.28;5087580;28;20569;-79
2022/06/21 10:27:33;;;;;;;0.40;0.40;;;22.20;60.00;;;22.34;42.61;94868.91;5068763;28;20211;-80
2022/06/21 10:30:21;;;;;;;0.40;0.40;;;22.20;59.80;;;22.39;42.72;94879.59;5057665;28;20870;-80
2022/06/21 10:33:33;;;;;;;0.52;0.52;;;22.30;60.30;;;22.45;42.70;94875.03;5069445;28;20741;-80
2022/06/21 10:36:21;;;;;;;0.45;0.45;;;22.30;59.60;;;22.49;41.54;94874.25;5036169;28;20239;-80
2022/06/21 10:39:19;;;;;;;0.30;0.30;;;22.40;57.60;;;22.50;42.07;94872.38;5070203;28;20202;-81
2022/06/21 10:45:19;;;;;;;0.40;0.40;;;22.50;60.30;;;22.72;43.22;94877.44;5071675;28;20219;-80
2022/06/21 10:48:21;;;;;;;0.40;0.40;;;22.60;58.80;;;22.83;43.36;94870.22;5068651;28;20224;-80
2022/06/21 10:51:24;;;;;;;0.40;0.40;;;22.70;60.30;;;22.93;43.29;94867.50;5051860;28;20775;-81
2022/06/21 10:54:16;;;;;;;0.30;0.30;;;22.70;60.00;;;23.05;43.14;94875.25;5051544;28;21476;-80
2022/06/21 10:57:14;;;;;;;0.30;0.30;;;22.90;60.20;;;23.15;42.63;94861.03;5070617;28;20274;-81
2022/06/21 11:02:59;;;;;;;0.40;0.40;;;23.00;58.70;;;23.28;42.40;94852.44;5055710;28;20653;-80
2022/06/21 11:06:22;;;;;;;0.40;0.40;;;23.10;60.20;;;23.32;41.16;94855.38;5053916;28;20776;-79
2022/06/21 11:09:02;;;;;;;0.50;0.50;;;23.20;58.70;;;23.38;41.93;94854.28;5058781;28;20236;-79
2022/06/21 11:15:24;;;;;;;0.30;0.30;;;23.30;58.00;;;23.57;41.17;94869.72;5053486;28;20253;-78
2022/06/21 11:18:19;;;;;;;0.30;0.30;;;23.40;56.90;;;23.59;40.15;94860.34;5043054;28;20207;-78
2022/06/21 11:21:04;;;;;;;0.35;0.35;;;23.50;57.70;;;23.64;40.49;94854.16;5070410;28;20273;-79
2022/06/21 11:24:04;;;;;;;0.30;0.30;;;23.50;57.20;;;23.72;40.61;94847.44;5072058;28;20288;-78
2022/06/21 11:26:54;;;;;;;0.30;0.30;;;23.60;57.50;;;23.77;40.44;94848.19;5070174;28;20214;-78
2022/06/21 11:29:33;;;;;;;0.40;0.40;;;23.60;57.20;;;23.86;40.82;94847.63;5054766;28;20292;-79
2022/06/21 11:32:30;;;;;;;0.43;0.43;;;23.70;57.50;;;23.92;40.34;94833.94;5070076;28;20204;-80
2022/06/21 11:35:06;;;;;;;0.70;0.70;;;23.80;56.90;;;24.06;40.47;94833.31;5051362;28;20388;-80
2022/06/21 11:38:01;;;;;;;0.40;0.40;;;23.80;57.00;;;24.16;40.56;94835.91;5065719;28;20198;-79
2022/06/21 11:40:50;;;;;;;0.30;0.30;;;23.90;56.50;;;24.23;38.30;94840.94;5091229;28;20589;-80
2022/06/21 11:43:47;;;;;;;0.60;0.60;;;24.00;56.10;;;24.21;39.64;94832.41;5070801;28;20229;-79